Terminal Aerodrome Forecast
Issued by NWS

Home | Current Version | Previous Version | Text Only | Print | Product List | Glossary On
Versions: 1 2 3 4 5 6 7 8 9 10 11 12 13 14 15 16
026
FTUS45 KRIW 302322
TAFCPR
TAF
KCPR 302322Z 3100/3124 36006KT P6SM VCSH SCT060 BKN100
      TEMPO 3100/3102 -SHRA BKN050
     FM310200 04013KT P6SM VCSH OVC024
     FM310600 04013G23KT 4SM -RA OVC015
     FM312100 04012G22KT 3SM -RASN OVC010=

USA.gov is the U.S. government's official web portal to all federal, state and local government web resources and services.